Time;durP1;ratioP1;P1;durP2;ratioP2;P2;SDS_P1;SDS_P2;PMS_P1;PMS_P2;Temp;Humidity;BMP_temperature;BMP_pressure;BME280_temperature;BME280_humidity;BME280_pressure;Samples;Min_cycle;Max_cycle;Signal;HPM_P1;HPM_P2
2021/08/11 00:01:00;;;;;;;9.50;3.75;;;;;;;20.15;84.41;96557.66;5076813;28;20973;-69
2021/08/11 00:03:27;;;;;;;6.00;3.58;;;;;;;20.05;83.74;96558.22;5077251;28;20591;-69
2021/08/11 00:05:53;;;;;;;5.03;3.38;;;;;;;19.84;83.45;96572.03;5076473;28;20199;-69
2021/08/11 00:08:20;;;;;;;7.25;3.95;;;;;;;19.95;83.44;96563.28;5077196;28;20195;-69
2021/08/11 00:10:46;;;;;;;7.50;3.50;;;;;;;19.85;84.07;96564.84;5077146;28;20210;-69
2021/08/11 00:13:14;;;;;;;7.18;3.78;;;;;;;20.22;83.37;96567.22;5076741;28;20215;-69
2021/08/11 00:15:40;;;;;;;10.00;4.20;;;;;;;20.13;83.88;96560.56;5075641;28;20220;-68
2021/08/11 00:18:07;;;;;;;8.25;4.05;;;;;;;20.13;83.14;96565.09;5076609;28;20208;-69
2021/08/11 00:20:35;;;;;;;10.50;5.22;;;;;;;20.18;83.82;96558.00;5076857;28;20206;-68
2021/08/11 00:23:01;;;;;;;14.10;4.30;;;;;;;20.11;83.63;96567.19;5076703;28;20216;-68
2021/08/11 00:25:28;;;;;;;6.47;3.80;;;;;;;19.93;85.32;96564.56;5076225;28;20199;-68
2021/08/11 00:27:54;;;;;;;6.32;3.55;;;;;;;20.09;83.77;96564.72;5076432;28;20687;-68
2021/08/11 00:30:22;;;;;;;5.63;3.45;;;;;;;20.23;83.64;96555.47;5076732;28;20207;-68
2021/08/11 00:32:48;;;;;;;5.85;3.70;;;;;;;20.05;83.17;96563.56;5076495;28;20737;-68
2021/08/11 00:35:15;;;;;;;6.10;3.72;;;;;;;20.18;83.74;96558.81;5076233;28;20227;-68
2021/08/11 00:37:41;;;;;;;7.07;4.00;;;;;;;20.21;84.28;96562.91;5076576;28;20199;-68
2021/08/11 00:40:11;;;;;;;6.05;3.35;;;;;;;20.18;83.76;96563.38;5076673;28;20200;-68
2021/08/11 00:42:37;;;;;;;9.93;3.58;;;;;;;20.21;84.81;96562.91;5077018;28;20219;-68
2021/08/11 00:45:05;;;;;;;11.57;4.03;;;;;;;20.30;83.60;96567.72;5076378;28;20215;-68
2021/08/11 00:47:35;;;;;;;6.40;3.63;;;;;;;20.10;84.47;96566.38;5075400;28;20196;-68
2021/08/11 00:50:02;;;;;;;10.75;4.07;;;;;;;19.82;86.07;96565.31;5074027;28;20223;-68
2021/08/11 00:52:29;;;;;;;9.88;4.20;;;;;;;19.81;85.79;96567.16;5077115;28;20234;-68
2021/08/11 00:54:56;;;;;;;5.25;3.72;;;;;;;19.91;85.30;96567.47;5076243;28;20200;-68
2021/08/11 00:57:23;;;;;;;6.80;3.90;;;;;;;19.90;85.01;96571.13;5075545;28;20222;-68
2021/08/11 00:59:50;;;;;;;8.55;4.00;;;;;;;19.88;86.13;96572.41;5076710;28;20207;-68
2021/08/11 01:02:18;;;;;;;6.47;3.97;;;;;;;19.75;86.51;96568.03;5076419;28;20219;-68
2021/08/11 01:04:47;;;;;;;7.15;3.60;;;;;;;19.94;86.10;96564.31;5076618;28;20200;-68
2021/08/11 01:07:16;;;;;;;7.53;4.20;;;;;;;19.91;85.31;96569.34;5075574;28;20196;-68
2021/08/11 01:09:43;;;;;;;6.45;3.78;;;;;;;20.03;84.75;96565.63;5076045;28;20204;-68
2021/08/11 01:12:09;;;;;;;9.25;4.07;;;;;;;20.02;84.40;96566.69;5076177;28;20200;-68
2021/08/11 01:14:38;;;;;;;7.70;4.05;;;;;;;19.67;85.81;96576.38;5076589;28;20204;-68
2021/08/11 01:17:05;;;;;;;8.57;3.95;;;;;;;19.68;85.58;96580.69;5075543;28;20224;-69
2021/08/11 01:19:32;;;;;;;5.72;3.85;;;;;;;19.84;86.49;96581.94;5076371;28;20200;-68
2021/08/11 01:22:07;;;;;;;9.60;3.95;;;;;;;19.86;85.73;96572.63;5076277;28;20204;-68
2021/08/11 01:24:41;;;;;;;8.95;4.10;;;;;;;20.01;87.22;96570.41;5076710;28;20205;-69
2021/08/11 01:27:32;;;;;;;13.10;4.43;;;;;;;19.91;86.73;96577.34;5075343;28;20200;-68
2021/08/11 01:30:09;;;;;;;5.68;3.88;;;;;;;19.76;86.55;96584.91;5076175;28;20668;-69
2021/08/11 01:33:06;;;;;;;9.80;3.67;;;;;;;19.98;85.35;96575.41;5076266;28;20219;-69
2021/08/11 01:35:41;;;;;;;6.00;3.92;;;;;;;19.94;85.08;96572.34;5061997;28;20239;-69
2021/08/11 01:38:14;;;;;;;7.80;4.65;;;;;;;19.90;86.00;96576.50;5075777;28;20261;-69
2021/08/11 01:40:48;;;;;;;8.10;4.47;;;;;;;19.73;86.73;96575.47;5079255;28;20272;-68
2021/08/11 01:43:16;;;;;;;7.90;4.15;;;;;;;19.55;86.79;96571.19;5079784;28;20224;-69
2021/08/11 01:45:43;;;;;;;9.75;3.92;;;;;;;19.67;85.83;96575.56;5078996;28;20200;-68
2021/08/11 01:48:14;;;;;;;7.75;4.07;;;;;;;19.85;85.51;96567.50;5076916;28;20243;-68
2021/08/11 01:50:45;;;;;;;7.47;4.00;;;;;;;19.73;85.79;96570.13;5079497;28;20211;-68
2021/08/11 01:53:14;;;;;;;7.80;3.88;;;;;;;19.66;86.60;96563.22;5079657;28;20224;-69
2021/08/11 01:55:41;;;;;;;9.00;3.72;;;;;;;19.50;86.14;96574.56;5079030;28;20227;-68
2021/08/11 01:58:08;;;;;;;5.47;3.80;;;;;;;19.41;85.51;96575.06;5079052;28;21074;-68
2021/08/11 02:00:35;;;;;;;8.52;3.70;;;;;;;19.35;85.02;96568.75;5079804;28;20293;-68
2021/08/11 02:03:03;;;;;;;6.45;3.97;;;;;;;19.39;85.15;96571.81;5079724;28;20220;-68
2021/08/11 02:05:31;;;;;;;6.53;3.90;;;;;;;19.33;86.08;96567.34;5078444;28;20196;-68
2021/08/11 02:08:00;;;;;;;6.38;4.10;;;;;;;19.37;85.40;96571.19;5078440;28;20280;-68
2021/08/11 02:10:29;;;;;;;7.35;3.92;;;;;;;19.44;86.09;96566.63;5079896;28;20220;-68
2021/08/11 02:12:56;;;;;;;5.55;3.83;;;;;;;19.25;85.52;96575.66;5079542;28;20235;-68
2021/08/11 02:15:23;;;;;;;8.00;4.10;;;;;;;19.39;84.15;96563.78;5078418;28;20601;-68
2021/08/11 02:17:50;;;;;;;11.98;3.47;;;;;;;19.45;83.81;96568.22;5078807;28;20200;-67
2021/08/11 02:20:16;;;;;;;5.65;2.90;;;;;;;19.22;84.50;96571.56;5079194;28;20204;-68
2021/08/11 02:22:43;;;;;;;4.47;3.20;;;;;;;19.20;84.02;96570.16;5078761;28;20219;-68
2021/08/11 02:25:13;;;;;;;6.07;3.05;;;;;;;19.33;83.36;96567.34;5078945;28;20208;-68
2021/08/11 02:27:47;;;;;;;3.92;2.65;;;;;;;19.36;83.24;96564.22;5078885;28;20191;-68
2021/08/11 02:30:14;;;;;;;4.88;3.47;;;;;;;19.41;82.50;96565.19;5078705;28;20682;-68
2021/08/11 02:32:46;;;;;;;5.47;3.10;;;;;;;19.49;82.30;96561.38;5078732;28;20243;-68
2021/08/11 02:35:19;;;;;;;5.03;2.88;;;;;;;19.32;82.66;96560.34;5078374;28;20204;-68
2021/08/11 02:37:51;;;;;;;8.38;3.40;;;;;;;19.23;84.15;96564.38;5078684;28;20204;-68
2021/08/11 02:40:29;;;;;;;11.35;3.65;;;;;;;19.00;84.18;96562.31;5078936;28;20196;-68
2021/08/11 02:42:59;;;;;;;5.13;4.03;;;;;;;18.99;85.85;96557.19;5075694;28;20222;-68
2021/08/11 02:45:30;;;;;;;9.15;4.32;;;;;;;18.74;86.32;96555.59;5077752;28;20214;-68
2021/08/11 02:47:59;;;;;;;7.15;3.50;;;;;;;18.60;86.75;96557.56;5076698;28;20196;-68
2021/08/11 02:50:26;;;;;;;8.10;3.80;;;;;;;18.47;87.08;96554.19;5078224;28;20687;-68
2021/08/11 02:52:53;;;;;;;9.05;3.35;;;;;;;18.39;85.80;96551.78;5078332;28;20592;-68
2021/08/11 02:55:21;;;;;;;7.65;3.45;;;;;;;18.75;85.14;96551.88;5077020;28;20204;-68
2021/08/11 02:57:51;;;;;;;9.15;4.20;;;;;;;18.78;85.24;96557.59;5078267;28;20219;-68
2021/08/11 03:00:18;;;;;;;11.73;4.60;;;;;;;18.71;86.70;96562.19;5078462;28;20204;-68
2021/08/11 03:02:45;;;;;;;9.88;4.50;;;;;;;18.72;87.31;96557.66;5078335;28;20751;-68
2021/08/11 03:05:12;;;;;;;6.70;4.13;;;;;;;18.76;86.55;96558.84;5077766;28;20203;-69
2021/08/11 03:07:40;;;;;;;5.75;3.60;;;;;;;18.63;85.57;96562.44;5077648;28;20195;-68
2021/08/11 03:10:07;;;;;;;6.15;3.58;;;;;;;18.94;84.68;96565.06;5078169;28;20204;-69
2021/08/11 03:12:34;;;;;;;5.35;3.47;;;;;;;18.93;83.86;96571.44;5078419;28;20215;-69
2021/08/11 03:15:02;;;;;;;8.40;3.60;;;;;;;18.99;83.91;96566.03;5078376;28;20290;-68
2021/08/11 03:17:29;;;;;;;6.75;3.65;;;;;;;18.99;83.92;96565.19;5076952;28;20228;-69
2021/08/11 03:19:56;;;;;;;6.57;3.47;;;;;;;18.51;85.53;96564.22;5077692;28;20204;-69
2021/08/11 03:22:23;;;;;;;12.32;3.47;;;;;;;18.32;85.63;96561.69;5078793;28;20587;-69
2021/08/11 03:24:51;;;;;;;9.98;4.03;;;;;;;18.48;85.73;96562.00;5077811;28;20200;-68
2021/08/11 03:27:18;;;;;;;10.98;3.85;;;;;;;18.63;85.70;96562.44;5076469;28;20207;-68
2021/08/11 03:29:44;;;;;;;9.20;4.00;;;;;;;18.62;85.36;96568.84;5078030;28;20206;-68
2021/08/11 03:32:12;;;;;;;5.72;3.20;;;;;;;18.69;84.65;96566.13;5077731;28;20261;-68
2021/08/11 03:34:39;;;;;;;7.95;3.88;;;;;;;18.87;83.87;96566.16;5077887;28;20218;-68
2021/08/11 03:37:06;;;;;;;5.47;3.67;;;;;;;18.84;85.14;96572.75;5076654;28;20224;-68
2021/08/11 03:39:33;;;;;;;6.03;3.50;;;;;;;18.52;85.73;96568.53;5077670;28;20200;-68
2021/08/11 03:41:59;;;;;;;5.30;3.22;;;;;;;18.34;86.86;96564.94;5076915;28;20192;-68
2021/08/11 03:44:26;;;;;;;7.72;3.30;;;;;;;18.62;86.34;96571.53;5077460;28;20204;-69
2021/08/11 03:46:52;;;;;;;8.35;3.88;;;;;;;18.66;85.94;96570.03;5076466;28;20196;-68
2021/08/11 03:49:20;;;;;;;9.10;3.42;;;;;;;18.72;85.64;96563.00;5074966;28;20203;-68
2021/08/11 03:51:46;;;;;;;6.85;3.40;;;;;;;18.64;84.98;96568.63;5077033;28;20196;-68
2021/08/11 03:54:13;;;;;;;5.20;3.13;;;;;;;18.43;85.04;96577.84;5077271;28;21111;-68
2021/08/11 03:56:39;;;;;;;5.82;3.60;;;;;;;18.47;86.25;96565.69;5076409;28;20220;-68
2021/08/11 03:59:06;;;;;;;6.75;4.30;;;;;;;18.62;86.43;96571.53;5077337;28;20210;-69
2021/08/11 04:01:32;;;;;;;9.45;4.40;;;;;;;18.65;87.35;96579.09;5076993;28;20235;-68
2021/08/11 04:03:59;;;;;;;7.55;4.05;;;;;;;18.54;85.39;96569.09;5076370;28;20711;-68
2021/08/11 04:06:26;;;;;;;7.80;4.45;;;;;;;18.56;86.18;96572.38;5076537;28;20680;-68
2021/08/11 04:08:53;;;;;;;12.32;4.60;;;;;;;18.50;85.94;96575.91;5077366;28;20200;-68
2021/08/11 04:11:19;;;;;;;9.93;4.70;;;;;;;18.45;86.55;96572.28;5076721;28;20207;-68
2021/08/11 04:13:46;;;;;;;10.80;4.78;;;;;;;18.44;86.58;96584.81;5076722;28;20719;-68
2021/08/11 04:16:12;;;;;;;7.22;4.30;;;;;;;18.42;85.66;96578.84;5076220;28;20232;-68
2021/08/11 04:18:39;;;;;;;7.55;4.25;;;;;;;18.12;86.54;96581.50;5076814;28;20204;-68
2021/08/11 04:21:05;;;;;;;14.05;4.78;;;;;;;18.38;85.58;96583.00;5077123;28;20220;-68
2021/08/11 04:23:33;;;;;;;10.65;5.00;;;;;;;18.49;85.09;96586.81;5076657;28;20282;-68
2021/08/11 04:26:00;;;;;;;7.20;4.85;;;;;;;18.45;85.66;96586.41;5075632;28;20222;-68
2021/08/11 04:28:26;;;;;;;9.10;5.00;;;;;;;18.41;85.82;96584.41;5077159;28;20227;-68
2021/08/11 04:30:53;;;;;;;11.52;4.53;;;;;;;18.40;85.73;96586.25;5076426;28;20196;-68
2021/08/11 04:33:19;;;;;;;8.90;4.68;;;;;;;18.13;86.39;96583.97;5076096;28;20595;-68
2021/08/11 04:35:46;;;;;;;8.40;3.95;;;;;;;18.11;86.74;96582.53;5075734;28;20633;-68
2021/08/11 04:38:12;;;;;;;6.03;3.90;;;;;;;18.30;85.86;96592.28;5076715;28;21052;-68
2021/08/11 04:40:40;;;;;;;6.72;4.72;;;;;;;18.51;86.05;96587.44;5077084;28;20202;-68
2021/08/11 04:43:07;;;;;;;8.02;4.82;;;;;;;18.52;86.47;96589.88;5076505;28;20223;-68
2021/08/11 04:45:34;;;;;;;6.43;4.10;;;;;;;18.54;86.25;96579.78;5075412;28;20208;-68
2021/08/11 04:48:01;;;;;;;8.35;4.85;;;;;;;18.22;87.68;96596.03;5075380;28;20200;-68
2021/08/11 04:50:27;;;;;;;8.73;4.55;;;;;;;18.49;86.80;96592.16;5076351;28;20809;-68
2021/08/11 04:52:54;;;;;;;8.23;4.85;;;;;;;18.53;87.05;96586.19;5076395;28;20231;-68
2021/08/11 04:55:20;;;;;;;10.43;5.60;;;;;;;18.77;87.30;96584.53;5076026;28;20200;-68
2021/08/11 04:57:48;;;;;;;17.58;5.88;;;;;;;18.71;88.03;96588.91;5076291;28;20587;-68
2021/08/11 05:00:15;;;;;;;14.77;5.53;;;;;;;18.68;88.37;96589.31;5076078;28;20206;-68
2021/08/11 05:02:42;;;;;;;10.02;5.50;;;;;;;18.87;87.65;96582.19;5076506;28;20231;-68
2021/08/11 05:05:09;;;;;;;12.23;6.82;;;;;;;19.06;87.70;96598.06;5076655;28;20203;-68
2021/08/11 05:07:36;;;;;;;14.23;6.78;;;;;;;18.99;87.47;96594.56;5075801;28;20199;-68
2021/08/11 05:10:03;;;;;;;11.23;6.43;;;;;;;19.24;86.72;96590.06;5076305;28;20707;-68
2021/08/11 05:12:30;;;;;;;13.00;7.07;;;;;;;19.26;86.60;96588.78;5076115;28;20908;-68
2021/08/11 05:14:59;;;;;;;9.68;6.30;;;;;;;19.27;87.56;96594.94;5077884;28;20200;-68
2021/08/11 05:17:25;;;;;;;9.50;5.20;;;;;;;19.02;91.77;96597.63;5079459;28;20224;-68
2021/08/11 05:19:53;;;;;;;9.98;5.05;;;;;;;19.57;88.15;96586.78;5080587;28;20200;-69
2021/08/11 05:22:20;;;;;;;10.07;5.00;;;;;;;19.43;87.94;96599.72;5080050;28;20223;-68
2021/08/11 05:24:47;;;;;;;10.98;5.63;;;;;;;19.55;86.99;96593.38;5080174;28;20204;-68
2021/08/11 05:27:15;;;;;;;10.38;5.88;;;;;;;19.55;87.02;96590.72;5078949;28;20196;-68
2021/08/11 05:29:44;;;;;;;17.58;6.30;;;;;;;19.62;87.25;96594.94;5080142;28;20199;-68
2021/08/11 05:32:12;;;;;;;11.70;7.35;;;;;;;19.77;87.96;96595.38;5079946;28;20581;-68
2021/08/11 05:34:39;;;;;;;12.32;7.43;;;;;;;19.84;88.11;96597.97;5079977;28;20656;-68
2021/08/11 05:37:06;;;;;;;15.05;7.97;;;;;;;19.87;88.23;96601.03;5079128;28;21031;-68
2021/08/11 05:39:32;;;;;;;13.10;7.40;;;;;;;19.87;87.54;96603.69;5079884;28;20207;-68
2021/08/11 05:41:59;;;;;;;13.73;7.22;;;;;;;19.90;87.35;96600.56;5079210;28;20210;-68
2021/08/11 05:44:25;;;;;;;15.13;8.15;;;;;;;20.01;87.85;96597.16;5079630;28;20196;-69
2021/08/11 05:46:51;;;;;;;17.77;8.75;;;;;;;20.18;87.69;96600.84;5078886;28;20200;-67
2021/08/11 05:49:19;;;;;;;17.20;7.40;;;;;;;20.58;86.20;96601.88;5077101;28;20202;-67
2021/08/11 05:51:46;;;;;;;13.70;7.32;;;;;;;20.58;84.63;96600.03;5080431;28;20204;-68
2021/08/11 05:54:12;;;;;;;12.18;6.65;;;;;;;20.76;83.21;96601.81;5079238;28;20228;-67
2021/08/11 05:56:39;;;;;;;10.18;6.82;;;;;;;20.84;83.13;96597.75;5078197;28;20572;-67
2021/08/11 05:59:05;;;;;;;14.50;8.07;;;;;;;20.84;84.29;96603.13;5079416;28;20248;-68
2021/08/11 06:01:32;;;;;;;16.15;8.63;;;;;;;20.81;83.75;96602.75;5079859;28;20207;-67
2021/08/11 06:03:59;;;;;;;16.25;8.00;;;;;;;20.67;85.96;96608.53;5079551;28;20306;-68
2021/08/11 06:06:28;;;;;;;12.05;8.00;;;;;;;20.81;85.42;96608.09;5078228;28;20203;-67
2021/08/11 06:08:55;;;;;;;13.88;7.80;;;;;;;20.84;84.37;96602.31;5079012;28;20238;-68
2021/08/11 06:11:21;;;;;;;13.68;8.90;;;;;;;20.73;85.70;96610.34;5079516;28;20219;-68
2021/08/11 06:13:48;;;;;;;15.10;7.93;;;;;;;20.70;85.72;96606.22;5079117;28;20223;-68
2021/08/11 06:16:14;;;;;;;11.95;8.02;;;;;;;20.82;85.24;96608.94;5078289;28;20200;-68
2021/08/11 06:18:42;;;;;;;11.98;7.38;;;;;;;21.15;83.10;96610.81;5078997;28;20246;-68
2021/08/11 06:21:08;;;;;;;11.82;6.50;;;;;;;21.20;82.71;96613.63;5079084;28;20196;-68
2021/08/11 06:23:36;;;;;;;18.45;8.57;;;;;;;21.26;82.90;96607.34;5078698;28;20565;-68
2021/08/11 06:26:02;;;;;;;17.27;8.57;;;;;;;20.99;83.72;96602.66;5078283;28;20204;-68
2021/08/11 06:28:29;;;;;;;14.70;7.75;;;;;;;21.45;81.58;96608.84;5079232;28;20207;-68
2021/08/11 06:30:55;;;;;;;14.57;7.15;;;;;;;21.61;80.62;96611.66;5078566;28;20672;-68
2021/08/11 06:33:22;;;;;;;10.57;6.72;;;;;;;21.32;81.47;96617.13;5077915;28;20220;-67
2021/08/11 06:35:48;;;;;;;12.90;7.75;;;;;;;21.14;82.35;96608.38;5078193;28;20208;-68
2021/08/11 06:38:15;;;;;;;15.38;7.10;;;;;;;21.67;81.75;96620.59;5078526;28;20215;-68
2021/08/11 06:40:43;;;;;;;15.30;7.30;;;;;;;21.47;80.27;96615.59;5078030;28;20207;-67
2021/08/11 06:43:10;;;;;;;12.70;6.30;;;;;;;22.01;78.35;96611.63;5078456;28;20219;-68
2021/08/11 06:45:36;;;;;;;19.42;7.25;;;;;;;21.53;79.15;96620.03;5078243;28;20207;-68
2021/08/11 06:48:03;;;;;;;18.27;7.78;;;;;;;21.82;79.45;96619.06;5076628;28;20207;-68
2021/08/11 06:50:30;;;;;;;14.45;7.65;;;;;;;21.75;79.43;96614.88;5078004;28;20206;-68
2021/08/11 06:52:56;;;;;;;14.93;7.10;;;;;;;21.88;79.07;96606.56;5078685;28;20216;-68
2021/08/11 06:55:23;;;;;;;13.13;6.55;;;;;;;21.96;78.81;96608.84;5077757;28;20203;-68
2021/08/11 06:57:50;;;;;;;10.98;6.15;;;;;;;22.53;77.13;96609.47;5078236;28;20306;-68
2021/08/11 07:00:18;;;;;;;10.68;6.38;;;;;;;22.57;77.67;96607.94;5078750;28;20199;-68
2021/08/11 07:02:45;;;;;;;9.98;5.63;;;;;;;22.44;75.77;96608.25;5077984;28;20219;-68
2021/08/11 07:05:13;;;;;;;11.18;6.60;;;;;;;22.68;76.29;96607.03;5077224;28;20237;-69
2021/08/11 07:07:39;;;;;;;9.15;5.65;;;;;;;22.88;74.91;96610.06;5077952;28;20192;-68
2021/08/11 07:10:07;;;;;;;11.95;6.13;;;;;;;22.70;77.10;96602.25;5079233;28;20200;-68
2021/08/11 07:12:33;;;;;;;10.82;6.07;;;;;;;22.92;76.26;96611.22;5077910;28;20223;-68
2021/08/11 07:15:01;;;;;;;13.70;6.13;;;;;;;23.06;76.13;96612.53;5077388;28;20208;-68
2021/08/11 07:17:27;;;;;;;10.77;5.28;;;;;;;23.07;75.57;96614.19;5077246;28;20226;-68
2021/08/11 07:19:54;;;;;;;9.63;5.30;;;;;;;22.92;75.43;96614.69;5077404;28;20200;-68
2021/08/11 07:22:22;;;;;;;11.63;6.25;;;;;;;23.00;74.93;96608.97;5077557;28;20223;-68
2021/08/11 07:24:49;;;;;;;16.80;5.85;;;;;;;22.93;75.35;96596.72;5078065;28;20295;-68
2021/08/11 07:27:15;;;;;;;14.05;5.45;;;;;;;23.27;75.01;96598.34;5077196;28;20196;-68
2021/08/11 07:29:42;;;;;;;10.43;5.63;;;;;;;23.29;74.18;96604.28;5077345;28;20200;-68
2021/08/11 07:32:10;;;;;;;13.35;4.88;;;;;;;23.83;73.38;96596.19;5077512;28;20246;-68
2021/08/11 07:34:36;;;;;;;12.63;5.40;;;;;;;23.78;73.62;96601.50;5077844;28;20204;-68
2021/08/11 07:37:03;;;;;;;9.93;4.97;;;;;;;23.46;73.23;96593.25;5075700;28;20679;-68
2021/08/11 07:39:30;;;;;;;10.85;4.93;;;;;;;23.50;73.09;96605.16;5077595;28;20214;-68
2021/08/11 07:41:56;;;;;;;9.77;5.18;;;;;;;23.79;71.91;96597.75;5077877;28;20214;-68
2021/08/11 07:44:23;;;;;;;12.05;5.50;;;;;;;24.12;71.95;96596.56;5077194;28;20220;-68
2021/08/11 07:46:49;;;;;;;8.05;4.82;;;;;;;24.02;70.63;96598.34;5076463;28;21151;-68
2021/08/11 07:49:17;;;;;;;10.27;4.78;;;;;;;24.09;70.91;96596.25;5075562;28;20196;-68
2021/08/11 07:51:43;;;;;;;8.35;4.30;;;;;;;24.20;69.32;96589.91;5077471;28;20941;-68
2021/08/11 07:54:10;;;;;;;8.07;4.30;;;;;;;24.73;69.29;96588.88;5076941;28;20781;-68
2021/08/11 07:56:36;;;;;;;7.57;4.18;;;;;;;24.40;71.00;96587.44;5076151;28;20204;-68
2021/08/11 07:59:03;;;;;;;7.63;3.85;;;;;;;24.62;67.33;96594.44;5077224;28;20234;-68
2021/08/11 08:01:29;;;;;;;6.68;4.10;;;;;;;25.01;67.84;96591.25;5076713;28;20195;-68
2021/08/11 08:03:56;;;;;;;9.23;3.90;;;;;;;24.60;67.19;96591.16;5076700;28;20230;-68
2021/08/11 08:06:24;;;;;;;6.72;3.97;;;;;;;24.98;65.75;96588.28;5076585;28;20200;-68
2021/08/11 08:08:50;;;;;;;7.72;3.70;;;;;;;25.14;68.24;96596.25;5076427;28;20200;-68
2021/08/11 08:11:16;;;;;;;5.82;3.30;;;;;;;24.67;66.44;96591.78;5076510;28;20226;-68
2021/08/11 08:13:45;;;;;;;6.18;3.50;;;;;;;25.24;65.49;96591.75;5076584;28;20220;-68
2021/08/11 08:16:13;;;;;;;6.05;3.30;;;;;;;25.10;62.43;96597.00;5075622;28;20303;-68
2021/08/11 08:18:40;;;;;;;7.45;3.40;;;;;;;25.60;62.34;96590.88;5076928;28;20227;-68
2021/08/11 08:21:07;;;;;;;4.97;2.75;;;;;;;25.41;62.37;96588.88;5077220;28;20207;-68
2021/08/11 08:23:34;;;;;;;9.35;2.90;;;;;;;25.84;63.89;96590.22;5076344;28;20582;-68
2021/08/11 08:26:01;;;;;;;3.70;2.33;;;;;;;25.74;61.58;96592.06;5075998;28;20575;-67
2021/08/11 08:28:27;;;;;;;8.77;2.90;;;;;;;26.58;59.42;96588.88;5076430;28;20208;-68
2021/08/11 08:30:54;;;;;;;6.43;2.72;;;;;;;26.37;59.79;96578.28;5075407;28;20289;-67
2021/08/11 08:33:20;;;;;;;5.07;2.42;;;;;;;26.35;60.57;96581.25;5075862;28;20219;-68
2021/08/11 08:35:47;;;;;;;5.88;2.72;;;;;;;26.52;58.11;96582.63;5075354;28;20204;-68
2021/08/11 08:38:14;;;;;;;5.32;2.67;;;;;;;26.65;58.83;96575.91;5075815;28;20770;-68
2021/08/11 08:40:44;;;;;;;5.25;2.67;;;;;;;26.62;58.30;96579.94;5075793;28;20200;-68
2021/08/11 08:43:10;;;;;;;6.13;2.72;;;;;;;26.30;58.88;96583.09;5075605;28;20223;-68
2021/08/11 08:45:37;;;;;;;3.80;2.60;;;;;;;26.31;56.63;96580.13;5075071;28;20203;-67
2021/08/11 08:48:05;;;;;;;4.10;2.35;;;;;;;26.48;57.75;96586.94;5073396;28;20211;-68
2021/08/11 08:50:32;;;;;;;5.97;3.08;;;;;;;26.81;57.18;96582.97;5080326;28;20199;-68
2021/08/11 08:53:01;;;;;;;4.40;2.45;;;;;;;26.65;57.86;96582.09;5080317;28;20220;-68
2021/08/11 08:55:27;;;;;;;7.38;2.83;;;;;;;26.73;57.81;96584.31;5079137;28;20256;-68
2021/08/11 08:57:55;;;;;;;5.32;2.67;;;;;;;26.85;56.04;96578.63;5080221;28;20317;-68
2021/08/11 09:00:22;;;;;;;5.93;2.70;;;;;;;26.77;53.55;96587.25;5080195;28;20207;-67
2021/08/11 09:02:48;;;;;;;5.43;2.53;;;;;;;27.08;54.26;96586.25;5079770;28;20216;-68
2021/08/11 09:05:15;;;;;;;4.68;2.35;;;;;;;27.01;56.22;96594.63;5079234;28;20682;-68
2021/08/11 09:07:44;;;;;;;5.43;3.00;;;;;;;27.02;55.03;96590.00;5079617;28;20686;-68
2021/08/11 09:10:20;;;;;;;3.15;2.20;;;;;;;27.36;52.73;96595.41;5079317;28;20737;-68
2021/08/11 09:12:48;;;;;;;4.53;2.72;;;;;;;27.42;53.04;96588.06;5080275;28;20276;-68
2021/08/11 09:15:30;;;;;;;3.35;2.40;;;;;;;27.84;54.44;96592.88;5079240;28;20211;-68
2021/08/11 09:17:58;;;;;;;5.05;2.80;;;;;;;27.58;54.24;96582.38;5079550;28;20226;-68
2021/08/11 09:20:27;;;;;;;4.13;2.60;;;;;;;27.76;54.82;96587.22;5079297;28;20212;-68
2021/08/11 09:22:55;;;;;;;9.23;2.60;;;;;;;27.72;54.46;96586.97;5079449;28;20215;-68
2021/08/11 09:25:22;;;;;;;4.63;2.40;;;;;;;27.79;55.11;96582.06;5078988;28;20198;-69
2021/08/11 09:27:49;;;;;;;4.70;2.72;;;;;;;27.89;52.25;96583.91;5079966;28;20204;-69
2021/08/11 09:30:18;;;;;;;5.13;2.60;;;;;;;28.03;55.14;96585.78;5079764;28;20687;-69
2021/08/11 09:32:53;;;;;;;7.40;2.38;;;;;;;27.94;51.98;96581.19;5079536;28;20223;-69
2021/08/11 09:35:21;;;;;;;4.93;2.97;;;;;;;27.30;54.96;96582.16;5079489;28;20199;-68
2021/08/11 09:37:49;;;;;;;8.95;2.88;;;;;;;27.56;54.17;96587.28;5079977;28;20202;-69
2021/08/11 09:40:17;;;;;;;4.53;2.83;;;;;;;27.46;53.27;96579.16;5079863;28;20203;-69
2021/08/11 09:42:45;;;;;;;4.78;2.90;;;;;;;27.83;53.11;96585.03;5079458;28;20872;-69
2021/08/11 09:45:13;;;;;;;6.22;2.75;;;;;;;28.30;52.39;96577.25;5079229;28;21620;-68
2021/08/11 09:47:55;;;;;;;9.18;3.10;;;;;;;28.65;53.48;96575.16;5079279;28;20988;-68
2021/08/11 09:50:36;;;;;;;5.22;2.75;;;;;;;28.61;53.29;96577.63;5078775;28;20206;-68
2021/08/11 09:53:03;;;;;;;5.22;2.78;;;;;;;27.95;51.18;96574.69;5078861;28;20288;-68
2021/08/11 09:55:29;;;;;;;6.38;2.88;;;;;;;28.34;53.46;96573.72;5078824;28;20200;-68
2021/08/11 09:57:56;;;;;;;4.88;2.63;;;;;;;28.37;52.88;96570.44;5079481;28;20211;-69
2021/08/11 10:00:22;;;;;;;4.30;2.80;;;;;;;28.44;51.04;96571.75;5078457;28;20195;-68
2021/08/11 10:03:04;;;;;;;6.78;2.70;;;;;;;28.43;51.99;96567.41;5079439;28;20222;-69
2021/08/11 10:05:36;;;;;;;3.75;2.60;;;;;;;28.74;52.48;96568.91;5078096;28;21166;-68
2021/08/11 10:08:03;;;;;;;10.40;3.00;;;;;;;28.93;51.62;96575.25;5078904;28;21116;-69
2021/08/11 10:10:44;;;;;;;4.97;2.85;;;;;;;29.04;51.16;96574.06;5079025;28;20200;-69
2021/08/11 10:13:10;;;;;;;6.88;3.13;;;;;;;29.17;50.71;96568.00;5079262;28;20230;-69
2021/08/11 10:15:37;;;;;;;4.05;3.03;;;;;;;28.52;53.32;96568.44;5078469;28;20199;-69
2021/08/11 10:18:06;;;;;;;3.53;2.63;;;;;;;29.19;50.35;96579.38;5078752;28;20204;-69
2021/08/11 10:20:33;;;;;;;4.55;2.70;;;;;;;29.18;52.66;96578.56;5079195;28;20204;-69
2021/08/11 10:22:59;;;;;;;5.32;2.70;;;;;;;29.42;48.57;96578.66;5079041;28;20226;-70
2021/08/11 10:26:48;;;;;;;6.03;2.60;;;;;;;29.12;47.18;96581.59;5093925;27;20548;-69
2021/08/11 10:29:14;;;;;;;7.18;2.67;;;;;;;29.11;49.29;96585.41;5094871;28;20229;-69
2021/08/11 10:31:41;;;;;;;4.93;2.90;;;;;;;29.30;49.54;96578.19;5094200;28;20203;-70
2021/08/11 10:34:12;;;;;;;4.30;2.97;;;;;;;29.87;50.88;96587.16;5094009;28;20223;-69
2021/08/11 10:36:42;;;;;;;3.83;2.85;;;;;;;30.13;45.71;96581.16;5093655;28;20210;-69
2021/08/11 10:39:10;;;;;;;4.85;2.65;;;;;;;30.03;46.63;96575.81;5095145;28;20211;-68
2021/08/11 10:41:38;;;;;;;2.97;2.50;;;;;;;30.00;48.54;96581.03;5094467;28;20204;-68
2021/08/11 10:44:15;;;;;;;4.53;2.60;;;;;;;30.20;49.04;96581.59;5093900;28;20227;-69
2021/08/11 10:46:44;;;;;;;5.97;2.72;;;;;;;30.32;46.89;96588.22;5092548;28;20230;-68
2021/08/11 10:49:16;;;;;;;3.70;2.55;;;;;;;29.73;47.94;96584.28;5090981;28;20207;-68
2021/08/11 10:51:44;;;;;;;4.78;2.75;;;;;;;30.03;49.23;96581.25;5093632;28;20738;-68
2021/08/11 10:54:11;;;;;;;5.72;3.10;;;;;;;30.17;47.87;96579.47;5093903;28;20234;-69
2021/08/11 10:56:43;;;;;;;5.63;3.08;;;;;;;29.88;49.38;96573.28;5093089;28;20204;-68
2021/08/11 10:59:45;;;;;;;6.18;3.10;;;;;;;29.95;46.59;96587.34;5093610;28;20302;-68
2021/08/11 11:02:47;;;;;;;4.25;2.90;;;;;;;30.28;49.19;96575.50;5093891;28;20297;-68
2021/08/11 11:06:00;;;;;;;5.35;3.60;;;;;;;30.76;47.46;96579.75;5092545;28;20219;-68
2021/08/11 11:08:34;;;;;;;8.52;3.28;;;;;;;30.34;47.52;96577.84;5093838;28;20202;-68
2021/08/11 11:11:34;;;;;;;5.93;3.20;;;;;;;30.78;45.71;96578.38;5093369;28;20203;-68
2021/08/11 11:14:01;;;;;;;5.57;3.00;;;;;;;30.42;46.05;96574.53;5093019;28;20274;-68
2021/08/11 11:17:10;;;;;;;6.68;3.40;;;;;;;29.96;45.23;96569.13;5092688;28;21003;-68
2021/08/11 11:20:27;;;;;;;5.20;3.20;;;;;;;29.64;46.04;96571.63;5093423;28;20218;-68
2021/08/11 11:23:01;;;;;;;5.47;3.13;;;;;;;29.48;46.41;96569.34;5093140;28;20223;-68
2021/08/11 11:26:04;;;;;;;4.70;3.40;;;;;;;28.90;47.34;96561.44;5092514;28;20595;-68
2021/08/11 11:28:50;;;;;;;5.60;3.42;;;;;;;29.12;47.50;96563.44;5093180;28;20282;-68
2021/08/11 11:31:29;;;;;;;4.50;3.20;;;;;;;29.19;50.47;96553.03;5093552;28;20227;-68
2021/08/11 11:34:15;;;;;;;5.05;3.75;;;;;;;28.99;49.61;96552.41;5093262;28;21131;-68
2021/08/11 11:36:43;;;;;;;5.80;3.70;;;;;;;29.04;47.46;96549.66;5086665;28;20584;-68
2021/08/11 11:39:11;;;;;;;7.03;3.97;;;;;;;28.60;49.08;96550.78;5079560;28;20204;-68
2021/08/11 11:41:59;;;;;;;6.30;3.55;;;;;;;28.39;49.82;96555.53;5079476;28;20616;-68